Time;durP1;ratioP1;P1;durP2;ratioP2;P2;SDS_P1;SDS_P2;PMS_P1;PMS_P2;Temp;Humidity;BMP_temperature;BMP_pressure;BME280_temperature;BME280_humidity;BME280_pressure;Samples;Min_cycle;Max_cycle;Signal;HPM_P1;HPM_P2
2022/01/23 00:02:19;;;;;;;84.87;44.40;;;2.50;79.60;;;;;;5012854;28;20041;-75
2022/01/23 00:04:45;;;;;;;82.28;44.55;;;2.50;79.80;;;;;;5013092;28;20453;-75
2022/01/23 00:07:13;;;;;;;80.47;43.87;;;2.50;79.50;;;;;;5012584;28;20022;-75
2022/01/23 00:09:39;;;;;;;81.43;44.20;;;2.50;79.70;;;;;;5012426;28;20046;-75
2022/01/23 00:12:13;;;;;;;81.67;43.10;;;2.50;79.60;;;;;;5013646;28;20032;-75
2022/01/23 00:17:25;;;;;;;79.00;44.10;;;2.50;79.50;;;;;;5016092;28;20045;-75
2022/01/23 00:19:57;;;;;;;81.50;44.40;;;2.50;79.20;;;;;;5016280;28;20026;-75
2022/01/23 00:22:34;;;;;;;84.70;45.30;;;2.50;78.70;;;;;;5015955;28;20034;-75
2022/01/23 00:30:30;;;;;;;80.53;43.50;;;2.60;77.90;;;;;;5015607;28;20044;-75
2022/01/23 00:33:04;;;;;;;80.97;45.23;;;2.60;77.50;;;;;;5015831;28;20530;-75
2022/01/23 00:35:32;;;;;;;74.77;40.80;;;2.50;76.90;;;;;;5015563;28;20474;-74
2022/01/23 00:37:59;;;;;;;72.30;39.77;;;2.50;76.70;;;;;;5015646;28;20026;-75
2022/01/23 00:40:27;;;;;;;75.23;39.80;;;2.50;76.80;;;;;;5015639;28;20367;-75
2022/01/23 00:42:54;;;;;;;76.90;40.33;;;2.40;76.60;;;;;;5016063;28;20073;-75
2022/01/23 00:48:01;;;;;;;72.67;40.60;;;2.30;76.60;;;;;;5015837;28;20025;-76
2022/01/23 00:50:29;;;;;;;76.77;40.67;;;2.30;76.80;;;;;;5014963;28;20034;-75
2022/01/23 00:52:54;;;;;;;80.67;42.17;;;2.30;77.00;;;;;;5014344;28;20385;-75
2022/01/23 00:55:20;;;;;;;73.43;39.77;;;2.20;77.20;;;;;;5015705;28;20030;-75
2022/01/23 00:57:46;;;;;;;76.70;40.30;;;2.30;77.30;;;;;;5015482;28;20015;-75
2022/01/23 01:00:12;;;;;;;78.57;40.43;;;2.20;77.20;;;;;;5015159;28;20069;-75
2022/01/23 01:02:39;;;;;;;79.43;40.87;;;2.20;77.30;;;;;;5014904;28;20026;-75
2022/01/23 01:05:05;;;;;;;86.00;45.30;;;2.20;77.10;;;;;;5015329;28;20030;-75
2022/01/23 01:07:31;;;;;;;81.83;44.07;;;2.20;77.00;;;;;;5014864;28;20022;-75
2022/01/23 01:10:01;;;;;;;89.17;47.83;;;2.20;76.30;;;;;;5014909;28;20436;-75
2022/01/23 01:12:36;;;;;;;81.77;47.03;;;2.20;76.20;;;;;;5015301;28;20180;-75
2022/01/23 01:36:53;;;;;;;74.53;40.67;;;2.00;77.40;;;;;;5014221;28;20042;-74
2022/01/23 01:38:59;;;;;;;73.03;36.67;;;2.00;77.40;;;;;;5009778;28;20037;-74
2022/01/23 01:41:26;;;;;;;63.20;34.63;;;2.00;77.40;;;;;;5013688;28;20521;-74
2022/01/23 01:43:53;;;;;;;61.00;31.90;;;2.00;77.40;;;;;;5014287;28;20018;-74
2022/01/23 01:46:18;;;;;;;61.53;32.53;;;2.00;77.40;;;;;;5013921;28;20493;-73
2022/01/23 01:48:44;;;;;;;57.63;31.20;;;2.00;77.40;;;;;;5013429;28;20054;-74
2022/01/23 01:51:14;;;;;;;53.90;29.67;;;2.00;77.50;;;;;;5014747;28;20029;-74
2022/01/23 01:53:47;;;;;;;54.10;28.47;;;2.00;77.50;;;;;;5014145;28;20495;-74
2022/01/23 01:56:13;;;;;;;54.85;28.05;;;1.90;77.10;;;;;;5013362;28;20026;-74
2022/01/23 02:09:27;;;;;;;47.10;26.00;;;1.90;77.60;;;;;;5012509;28;20057;-74
2022/01/23 02:18:21;;;;;;;51.77;27.97;;;1.80;77.30;;;;;;5014135;28;20033;-74
2022/01/23 02:52:54;;;;;;;51.47;26.70;;;1.70;78.50;;;;;;5012580;28;20033;-75
2022/01/23 02:55:29;;;;;;;48.00;26.13;;;1.70;78.80;;;;;;5012570;28;20034;-74
2022/01/23 02:57:58;;;;;;;48.20;26.23;;;1.70;79.00;;;;;;5011684;28;20030;-74
2022/01/23 03:00:31;;;;;;;47.97;27.97;;;1.70;79.00;;;;;;5011678;28;20034;-75
2022/01/23 03:03:04;;;;;;;55.13;27.07;;;1.70;79.00;;;;;;5012069;28;20120;-75
2022/01/23 03:08:04;;;;;;;48.70;25.13;;;1.70;79.40;;;;;;5012450;28;20026;-75
2022/01/23 03:10:37;;;;;;;47.90;25.90;;;1.70;79.40;;;;;;5010413;28;20041;-75
2022/01/23 03:13:38;;;;;;;53.55;27.25;;;1.70;79.40;;;;;;5011784;28;20112;-75
2022/01/23 03:29:25;;;;;;;45.40;24.17;;;1.70;79.40;;;;;;5012030;28;20050;-75
2022/01/23 03:34:17;;;;;;;42.30;22.67;;;1.70;79.20;;;;;;5012607;28;20088;-75
2022/01/23 03:36:44;;;;;;;39.33;21.37;;;1.70;79.00;;;;;;5012437;28;20109;-75
2022/01/23 03:39:10;;;;;;;34.03;16.83;;;1.70;79.10;;;;;;5009931;28;20048;-74
2022/01/23 03:41:38;;;;;;;31.07;16.10;;;1.70;79.20;;;;;;5011368;28;20508;-75
2022/01/23 03:44:06;;;;;;;29.57;16.83;;;1.70;79.20;;;;;;5011563;28;20102;-75
2022/01/23 03:51:55;;;;;;;30.73;17.83;;;1.70;78.60;;;;;;5015501;28;20033;-74
2022/01/23 03:54:23;;;;;;;34.83;18.77;;;1.70;77.70;;;;;;5015371;28;20425;-75
2022/01/23 03:56:49;;;;;;;35.80;19.03;;;1.70;77.60;;;;;;5016020;28;20026;-74
2022/01/23 03:59:14;;;;;;;32.90;18.00;;;1.70;77.70;;;;;;5015228;28;20026;-74
2022/01/23 04:01:40;;;;;;;32.80;17.27;;;1.70;77.70;;;;;;5014989;28;20052;-74
2022/01/23 04:04:18;;;;;;;36.10;19.37;;;1.70;77.70;;;;;;5015317;28;20033;-75
2022/01/23 04:06:43;;;;;;;32.87;17.30;;;1.70;77.80;;;;;;5015221;28;20030;-74
2022/01/23 04:09:09;;;;;;;31.07;17.40;;;1.70;77.90;;;;;;5014988;28;20046;-75
2022/01/23 04:11:35;;;;;;;28.90;14.40;;;1.70;78.20;;;;;;5013393;28;20493;-75
2022/01/23 04:14:06;;;;;;;24.80;14.03;;;1.60;78.40;;;;;;5014591;28;20022;-75
2022/01/23 04:35:31;;;;;;;42.77;23.57;;;1.70;77.00;;;;;;5014551;28;20371;-74
2022/01/23 04:46:22;;;;;;;42.00;23.70;;;1.50;75.90;;;;;;5014721;28;20072;-75
2022/01/23 04:59:45;;;;;;;41.60;24.30;;;1.30;76.80;;;;;;5014905;28;20060;-74
2022/01/23 05:04:42;;;;;;;48.27;26.40;;;1.20;76.80;;;;;;5014410;28;20121;-74
2022/01/23 05:07:10;;;;;;;47.60;25.93;;;1.20;77.10;;;;;;5013920;28;20582;-74
2022/01/23 05:09:37;;;;;;;47.67;25.80;;;1.20;77.10;;;;;;5014159;28;20046;-74
2022/01/23 05:12:05;;;;;;;40.63;23.83;;;1.20;77.10;;;;;;5014742;28;20383;-74
2022/01/23 05:14:36;;;;;;;45.50;25.37;;;1.20;77.20;;;;;;5013647;28;20014;-74
2022/01/23 05:17:05;;;;;;;47.17;24.57;;;1.10;77.20;;;;;;5013911;28;20413;-75
2022/01/23 05:19:32;;;;;;;47.57;25.10;;;1.10;77.60;;;;;;5013968;28;20367;-74
2022/01/23 05:24:48;;;;;;;50.97;24.67;;;1.10;77.60;;;;;;5013676;28;20026;-74
2022/01/23 05:27:14;;;;;;;52.07;25.30;;;1.10;77.40;;;;;;5013081;28;20017;-74
2022/01/23 05:29:39;;;;;;;48.13;26.63;;;1.10;77.20;;;;;;5014077;28;20516;-74
2022/01/23 05:32:09;;;;;;;51.43;25.37;;;1.10;77.90;;;;;;5014040;28;20097;-75
2022/01/23 05:34:35;;;;;;;47.10;26.33;;;1.00;77.30;;;;;;5013940;28;20032;-74
2022/01/23 05:37:00;;;;;;;49.30;24.80;;;1.00;77.40;;;;;;5013213;28;20017;-75
2022/01/23 05:39:31;;;;;;;42.20;23.10;;;1.00;77.60;;;;;;5013196;28;20025;-75
2022/01/23 05:42:04;;;;;;;45.37;24.10;;;1.00;77.70;;;;;;5013415;28;20038;-75
2022/01/23 05:44:30;;;;;;;47.00;22.83;;;1.00;77.60;;;;;;5012375;28;20026;-74
2022/01/23 05:46:55;;;;;;;42.27;23.57;;;1.00;77.60;;;;;;5013151;28;20034;-74
2022/01/23 05:49:22;;;;;;;40.80;22.47;;;1.00;77.70;;;;;;5012919;28;20097;-73
2022/01/23 05:51:47;;;;;;;45.70;23.23;;;1.00;77.90;;;;;;5013597;28;20018;-73
2022/01/23 05:54:13;;;;;;;41.67;23.80;;;1.00;78.00;;;;;;5013483;28;20035;-74
2022/01/23 05:56:39;;;;;;;43.33;23.57;;;1.00;77.60;;;;;;5014052;28;20469;-74
2022/01/23 05:59:05;;;;;;;46.63;23.20;;;1.10;77.40;;;;;;5012844;28;20022;-75
2022/01/23 06:01:30;;;;;;;47.07;22.53;;;1.10;76.80;;;;;;5014080;28;20153;-75
2022/01/23 06:03:56;;;;;;;43.60;22.67;;;1.00;76.60;;;;;;5012694;28;20022;-74
2022/01/23 06:06:22;;;;;;;46.93;23.03;;;1.00;76.70;;;;;;5013454;28;20032;-75
2022/01/23 06:08:48;;;;;;;47.50;23.40;;;1.00;76.40;;;;;;5012820;28;20387;-74
2022/01/23 06:11:14;;;;;;;42.97;22.20;;;0.90;76.40;;;;;;5012248;28;20501;-75
2022/01/23 06:13:40;;;;;;;44.23;22.93;;;0.90;76.40;;;;;;5012241;28;20026;-74
2022/01/23 06:16:06;;;;;;;40.37;22.10;;;0.80;76.40;;;;;;5012502;28;20489;-75
2022/01/23 06:18:35;;;;;;;42.23;22.67;;;0.80;76.70;;;;;;5012536;28;20022;-75
2022/01/23 06:21:01;;;;;;;39.73;22.67;;;0.80;76.70;;;;;;5013086;28;20393;-74
2022/01/23 06:23:30;;;;;;;38.47;21.83;;;0.80;76.70;;;;;;5012852;28;20030;-74
2022/01/23 06:25:56;;;;;;;40.07;22.00;;;0.70;76.60;;;;;;5011471;28;20033;-74
2022/01/23 06:28:36;;;;;;;42.10;22.60;;;0.70;76.70;;;;;;5013027;28;20014;-74
2022/01/23 06:31:02;;;;;;;43.33;22.80;;;0.70;76.90;;;;;;5012495;28;20057;-74
2022/01/23 06:33:29;;;;;;;44.07;22.80;;;0.70;77.20;;;;;;5012348;28;20054;-74
2022/01/23 06:35:54;;;;;;;40.63;22.77;;;0.70;77.40;;;;;;5013208;28;20100;-74
2022/01/23 06:38:20;;;;;;;41.10;21.30;;;0.70;77.40;;;;;;5012544;28;20466;-74
2022/01/23 06:40:46;;;;;;;43.37;23.07;;;0.70;77.60;;;;;;5012833;28;20046;-74
2022/01/23 06:43:11;;;;;;;45.33;24.20;;;0.70;77.50;;;;;;5012352;28;20101;-75
2022/01/23 06:45:37;;;;;;;46.60;24.30;;;0.70;77.20;;;;;;5012705;28;20033;-75
2022/01/23 06:48:03;;;;;;;44.43;22.57;;;0.70;77.10;;;;;;5012945;28;20030;-75
2022/01/23 06:50:29;;;;;;;44.30;23.50;;;0.70;77.10;;;;;;5011521;28;20532;-75
2022/01/23 06:52:54;;;;;;;44.17;22.83;;;0.70;77.30;;;;;;5012524;28;20029;-75
2022/01/23 06:55:20;;;;;;;45.27;22.83;;;0.70;77.30;;;;;;5011950;28;20426;-75
2022/01/23 06:57:46;;;;;;;53.63;24.00;;;0.70;77.40;;;;;;5010704;28;20033;-75
2022/01/23 07:00:12;;;;;;;48.57;22.37;;;0.70;77.30;;;;;;5011829;28;20406;-74
2022/01/23 07:02:37;;;;;;;44.67;22.10;;;0.70;77.50;;;;;;5011200;28;20109;-74
2022/01/23 07:05:03;;;;;;;41.87;21.87;;;0.70;78.00;;;;;;5010800;28;20113;-75
2022/01/23 07:07:32;;;;;;;40.77;21.60;;;0.70;78.20;;;;;;5013262;28;20034;-73
2022/01/23 07:09:58;;;;;;;40.67;21.97;;;0.70;78.10;;;;;;5013841;28;20053;-75
2022/01/23 07:12:24;;;;;;;48.13;22.90;;;0.80;78.00;;;;;;5010855;28;20486;-75
2022/01/23 07:14:50;;;;;;;44.70;23.90;;;0.80;77.70;;;;;;5013610;28;20057;-76
2022/01/23 07:17:15;;;;;;;47.93;24.63;;;0.80;77.60;;;;;;5013261;28;20030;-76
2022/01/23 07:19:41;;;;;;;44.63;23.10;;;0.80;77.60;;;;;;5013176;28;20531;-76
2022/01/23 07:22:07;;;;;;;46.27;24.40;;;0.80;77.40;;;;;;5012644;28;20425;-76
2022/01/23 07:24:33;;;;;;;43.37;23.43;;;0.80;77.60;;;;;;5012385;28;20045;-76
2022/01/23 07:27:01;;;;;;;44.10;22.80;;;0.80;77.90;;;;;;5010726;28;20064;-75
2022/01/23 07:29:26;;;;;;;42.40;22.10;;;0.80;78.10;;;;;;5009311;28;20530;-76
2022/01/23 07:31:58;;;;;;;44.60;24.37;;;0.90;78.20;;;;;;5007743;28;20113;-77
2022/01/23 07:34:24;;;;;;;46.53;23.50;;;1.00;78.60;;;;;;5011393;28;20029;-75
2022/01/23 07:36:50;;;;;;;41.97;22.67;;;1.00;77.90;;;;;;5008764;28;20034;-75
2022/01/23 07:39:15;;;;;;;42.10;21.60;;;1.00;77.90;;;;;;5008889;28;20088;-74
2022/01/23 07:41:41;;;;;;;37.57;21.90;;;1.00;77.90;;;;;;5011987;28;20037;-75
2022/01/23 07:44:07;;;;;;;46.07;23.70;;;1.10;77.80;;;;;;5012932;28;20029;-75
2022/01/23 07:46:33;;;;;;;41.63;22.77;;;1.20;77.90;;;;;;5013130;28;20034;-75
2022/01/23 07:48:59;;;;;;;44.93;24.73;;;1.20;78.00;;;;;;5012961;28;20037;-75
2022/01/23 07:51:25;;;;;;;41.07;23.10;;;1.30;78.00;;;;;;5012113;28;20060;-76
2022/01/23 07:53:51;;;;;;;40.77;24.10;;;1.40;77.80;;;;;;5009934;28;20084;-82
2022/01/23 07:56:17;;;;;;;40.93;24.37;;;1.50;77.60;;;;;;5010827;28;20500;-80
2022/01/23 07:58:43;;;;;;;42.90;24.57;;;1.50;77.50;;;;;;5011164;28;20050;-80
2022/01/23 08:01:09;;;;;;;46.03;25.23;;;1.50;77.80;;;;;;5012464;28;20034;-79
2022/01/23 08:03:35;;;;;;;43.10;25.10;;;1.50;78.30;;;;;;5012752;28;20500;-84
2022/01/23 08:06:00;;;;;;;45.30;25.20;;;1.50;78.30;;;;;;5012809;28;20030;-79
2022/01/23 08:08:26;;;;;;;45.40;24.50;;;1.50;78.10;;;;;;5012455;28;20026;-77
2022/01/23 08:10:52;;;;;;;41.43;23.20;;;1.60;78.10;;;;;;5012766;28;20029;-78
2022/01/23 08:13:19;;;;;;;42.43;24.17;;;1.70;78.50;;;;;;5012551;28;20030;-77
2022/01/23 08:15:45;;;;;;;40.13;24.73;;;1.70;78.40;;;;;;5010756;28;20034;-77
2022/01/23 08:18:10;;;;;;;40.77;24.03;;;1.70;78.50;;;;;;5012692;28;20034;-77
2022/01/23 08:20:36;;;;;;;41.83;25.17;;;1.80;78.60;;;;;;5012648;28;20081;-78
2022/01/23 08:23:03;;;;;;;44.20;24.40;;;1.90;78.40;;;;;;5012232;28;20030;-77
2022/01/23 08:25:31;;;;;;;41.30;24.50;;;1.90;78.80;;;;;;5012399;28;20032;-78
2022/01/23 08:27:56;;;;;;;42.40;22.80;;;2.00;78.60;;;;;;5012447;28;20041;-77
2022/01/23 08:30:23;;;;;;;39.67;23.63;;;2.10;78.70;;;;;;5012421;28;20030;-77
2022/01/23 08:32:48;;;;;;;44.03;24.53;;;2.10;78.80;;;;;;5013804;28;20033;-78
2022/01/23 08:35:15;;;;;;;37.33;23.03;;;2.20;79.10;;;;;;5014213;28;20022;-77
2022/01/23 08:37:41;;;;;;;40.53;23.50;;;2.30;78.90;;;;;;5015107;28;20037;-78
2022/01/23 08:40:17;;;;;;;34.60;20.53;;;2.40;78.80;;;;;;5014831;28;20049;-75
2022/01/23 08:42:43;;;;;;;36.00;21.57;;;2.50;78.70;;;;;;5014230;28;20030;-76
2022/01/23 08:45:09;;;;;;;35.43;21.87;;;2.60;79.30;;;;;;5010086;28;20029;-76
2022/01/23 08:47:35;;;;;;;30.67;18.10;;;2.60;80.00;;;;;;5014028;28;20500;-78
2022/01/23 08:50:02;;;;;;;35.17;18.47;;;2.60;79.80;;;;;;5015597;28;20144;-76
2022/01/23 08:52:28;;;;;;;29.40;16.73;;;2.80;79.80;;;;;;5015093;28;20033;-76
2022/01/23 08:54:56;;;;;;;27.57;15.03;;;2.80;79.20;;;;;;5015283;28;20025;-75
2022/01/23 08:57:24;;;;;;;24.20;13.83;;;2.90;78.80;;;;;;5025466;28;20040;-76
2022/01/23 08:59:50;;;;;;;24.40;15.13;;;3.00;78.50;;;;;;5014207;28;20474;-79
2022/01/23 09:02:17;;;;;;;28.03;13.47;;;3.00;78.30;;;;;;5014161;28;20112;-76
2022/01/23 09:04:44;;;;;;;32.40;18.13;;;3.10;78.00;;;;;;5015595;28;20458;-75
2022/01/23 09:07:10;;;;;;;41.07;21.10;;;3.20;77.60;;;;;;5014263;28;20470;-76
2022/01/23 09:09:38;;;;;;;41.07;23.03;;;3.20;77.60;;;;;;5015258;28;20044;-76
2022/01/23 09:12:24;;;;;;;38.57;22.50;;;3.30;77.80;;;;;;5013945;28;20030;-80
2022/01/23 09:14:49;;;;;;;48.10;22.13;;;3.40;77.70;;;;;;5014619;28;20101;-77
2022/01/23 09:17:15;;;;;;;40.27;20.37;;;3.40;77.80;;;;;;5014896;28;20422;-80
2022/01/23 09:19:41;;;;;;;38.87;21.30;;;3.50;78.20;;;;;;5015108;28;20033;-84
2022/01/23 09:22:07;;;;;;;39.43;21.40;;;3.60;78.80;;;;;;5014804;28;20053;-76
2022/01/23 09:24:33;;;;;;;43.17;21.93;;;3.60;79.50;;;;;;5015022;28;20374;-82
2022/01/23 09:27:05;;;;;;;37.13;19.87;;;3.70;78.50;;;;;;5015273;28;20026;-83
2022/01/23 09:29:37;;;;;;;34.92;19.88;;;3.70;78.60;;;;;;5012084;28;20025;-82
2022/01/23 09:32:06;;;;;;;33.80;18.87;;;3.80;78.20;;;;;;5012327;28;20026;-82
2022/01/23 09:34:32;;;;;;;39.00;19.53;;;3.80;78.10;;;;;;5013578;28;20272;-82
2022/01/23 09:37:01;;;;;;;31.07;17.87;;;3.90;77.90;;;;;;5014804;28;20049;-82
2022/01/23 09:39:27;;;;;;;29.23;18.03;;;3.90;77.60;;;;;;5014707;28;20062;-81
2022/01/23 09:42:04;;;;;;;29.03;17.17;;;4.00;77.30;;;;;;5014975;28;20033;-82
2022/01/23 09:44:37;;;;;;;29.33;17.10;;;4.00;77.20;;;;;;5014411;28;20029;-81
2022/01/23 09:47:03;;;;;;;26.08;16.23;;;4.00;77.50;;;;;;5014693;28;20087;-81
2022/01/23 09:49:31;;;;;;;33.40;17.97;;;4.10;77.50;;;;;;5014489;28;20042;-80
2022/01/23 09:52:00;;;;;;;35.10;18.70;;;4.10;77.10;;;;;;5014046;28;20037;-82
2022/01/23 09:54:29;;;;;;;31.27;17.77;;;4.20;77.40;;;;;;5010775;28;20033;-81
2022/01/23 09:56:59;;;;;;;31.70;18.27;;;4.20;77.30;;;;;;5011212;28;20405;-79
2022/01/23 09:59:27;;;;;;;30.87;19.13;;;4.20;77.40;;;;;;5012597;28;20033;-79
2022/01/23 10:01:56;;;;;;;30.23;18.43;;;4.20;77.40;;;;;;5012703;28;20042;-80
2022/01/23 10:04:22;;;;;;;29.10;17.50;;;4.30;77.60;;;;;;5014433;28;20525;-81
2022/01/23 10:06:48;;;;;;;34.23;17.83;;;4.30;77.50;;;;;;5014463;28;20149;-80
2022/01/23 10:09:14;;;;;;;32.97;17.50;;;4.40;77.70;;;;;;5013968;28;20541;-79
2022/01/23 10:11:42;;;;;;;31.60;19.70;;;4.50;78.80;;;;;;5013208;28;20032;-81
2022/01/23 10:14:08;;;;;;;36.80;19.57;;;4.50;78.50;;;;;;5013949;28;20036;-81
2022/01/23 10:16:34;;;;;;;32.20;18.30;;;4.50;78.20;;;;;;5014045;28;20040;-79
2022/01/23 10:19:01;;;;;;;31.77;18.80;;;4.60;79.30;;;;;;5013036;28;20026;-81
2022/01/23 10:21:31;;;;;;;32.83;17.77;;;4.70;78.40;;;;;;5014330;28;20041;-81
2022/01/23 10:23:57;;;;;;;38.00;18.90;;;4.80;78.30;;;;;;5013727;28;20026;-81
2022/01/23 10:26:53;;;;;;;32.17;19.20;;;4.90;77.70;;;;;;5014054;28;20049;-81
2022/01/23 10:29:29;;;;;;;25.97;15.07;;;5.00;78.20;;;;;;5010909;28;20481;-81
2022/01/23 10:32:25;;;;;;;22.30;13.27;;;5.10;77.40;;;;;;5013877;28;20109;-81
2022/01/23 10:35:01;;;;;;;27.27;15.33;;;5.20;77.00;;;;;;5011992;28;20032;-81
2022/01/23 10:37:34;;;;;;;30.70;16.63;;;5.30;76.50;;;;;;5013428;28;20490;-81
2022/01/23 10:40:06;;;;;;;25.07;14.20;;;5.40;76.50;;;;;;5013494;28;20029;-81
2022/01/23 10:47:55;;;;;;;24.93;15.23;;;5.60;75.50;;;;;;5013995;28;20072;-81
2022/01/23 10:50:25;;;;;;;20.85;13.35;;;5.70;75.20;;;;;;5013878;28;20013;-81
2022/01/23 10:52:51;;;;;;;22.47;14.23;;;5.80;75.00;;;;;;5013617;28;20026;-81
2022/01/23 10:55:20;;;;;;;24.30;14.20;;;5.90;74.70;;;;;;5013182;28;20100;-81
2022/01/23 10:57:50;;;;;;;26.80;16.07;;;6.00;74.80;;;;;;5013636;28;20032;-81
2022/01/23 11:00:27;;;;;;;27.50;15.73;;;6.10;74.50;;;;;;5013694;28;20174;-82
2022/01/23 11:02:54;;;;;;;26.90;14.83;;;6.10;74.50;;;;;;5012361;28;20022;-81
2022/01/23 11:05:21;;;;;;;26.00;15.47;;;6.20;74.30;;;;;;5013788;28;20036;-81
2022/01/23 11:07:49;;;;;;;26.27;15.83;;;6.30;73.80;;;;;;5013621;28;20033;-81
2022/01/23 11:10:21;;;;;;;26.30;16.37;;;6.40;73.40;;;;;;5011977;28;20050;-81
2022/01/23 11:18:13;;;;;;;25.25;14.63;;;6.70;71.80;;;;;;5013382;28;20037;-82
2022/01/23 11:20:43;;;;;;;27.90;14.90;;;6.80;71.40;;;;;;5011797;28;20050;-81
2022/01/23 11:23:23;;;;;;;23.90;15.13;;;6.90;71.20;;;;;;5012241;28;20034;-82
2022/01/23 11:25:52;;;;;;;19.50;12.20;;;7.00;71.10;;;;;;5012379;28;20101;-82
2022/01/23 11:28:18;;;;;;;19.63;11.53;;;7.10;70.70;;;;;;5013305;28;20045;-81
2022/01/23 11:30:46;;;;;;;18.87;11.07;;;7.20;70.20;;;;;;5013526;28;20032;-82
2022/01/23 11:33:17;;;;;;;19.67;10.77;;;7.30;70.00;;;;;;5012131;28;20034;-82
2022/01/23 11:35:46;;;;;;;20.37;11.27;;;7.40;69.80;;;;;;5013690;28;20030;-82
2022/01/23 11:38:18;;;;;;;20.90;11.40;;;7.40;69.60;;;;;;5012074;28;20061;-82
2022/01/23 11:54:37;;;;;;;21.60;11.77;;;;;;;;;;5013605;28;20033;-82
2022/01/23 11:57:04;;;;;;;22.97;12.70;;;;;;;;;;5013128;28;20035;-82
2022/01/23 11:59:39;;;;;;;18.93;12.23;;;8.00;69.20;;;;;;5009991;28;20493;-82
2022/01/23 12:02:20;;;;;;;22.03;12.40;;;;;;;;;;5008705;28;20552;-83
2022/01/23 12:05:05;;;;;;;18.27;9.90;;;;;;;;;;5010882;28;20029;-83
2022/01/23 12:07:31;;;;;;;20.47;11.63;;;;;;;;;;5013897;28;20022;-83
2022/01/23 12:10:15;;;;;;;21.83;11.60;;;;;;;;;;5016900;28;20049;-83
2022/01/23 12:12:46;;;;;;;19.50;10.73;;;;;;;;;;5016910;28;20054;-83
2022/01/23 12:18:22;;;;;;;23.93;12.87;;;;;;;;;;5016678;28;20497;-82
2022/01/23 12:20:49;;;;;;;19.83;12.67;;;;;;;;;;5016623;28;20026;-82
2022/01/23 12:23:16;;;;;;;22.17;12.33;;;;;;;;;;5015586;28;20030;-82
2022/01/23 12:25:49;;;;;;;23.03;12.50;;;;;;;;;;5013590;28;20049;-82
2022/01/23 12:28:25;;;;;;;20.07;11.90;;;;;;;;;;5013531;28;20453;-82
2022/01/23 12:31:17;;;;;;;27.63;13.50;;;;;;;;;;5015983;28;20026;-82
2022/01/23 12:33:48;;;;;;;22.90;12.50;;;;;;;;;;5014414;28;20394;-83
2022/01/23 12:36:14;;;;;;;25.17;13.77;;;;;;;;;;5016439;28;20379;-82
2022/01/23 12:38:46;;;;;;;25.93;13.53;;;;;;;;;;5014544;28;20029;-83
2022/01/23 12:41:44;;;;;;;21.25;12.98;;;;;;;;;;5014838;28;20038;-83
2022/01/23 12:44:26;;;;;;;22.47;12.87;;;;;;;;;;4993430;28;20379;-82
2022/01/23 12:46:54;;;;;;;21.48;13.55;;;;;;;;;;5015630;28;20382;-83
2022/01/23 12:49:24;;;;;;;25.73;13.93;;;;;;;;;;5015753;28;20470;-82
2022/01/23 12:51:51;;;;;;;24.47;13.17;;;;;;;;;;5016254;28;20022;-83
2022/01/23 12:54:20;;;;;;;27.37;13.37;;;;;;;;;;5015816;28;20018;-83
2022/01/23 12:56:48;;;;;;;26.10;12.70;;;;;;;;;;5015857;28;20029;-83
2022/01/23 12:59:23;;;;;;;24.87;13.93;;;;;;;;;;5014611;28;20048;-82
2022/01/23 13:01:55;;;;;;;22.80;14.03;;;;;;;;;;5015408;28;20037;-82
2022/01/23 13:04:21;;;;;;;26.20;13.88;;;;;;;;;;5014503;28;20045;-84
2022/01/23 13:06:54;;;;;;;20.90;12.40;;;;;;;;;;5015876;28;20061;-83
2022/01/23 13:12:15;;;;;;;24.77;15.43;;;;;;;;;;5015824;28;20026;-83
2022/01/23 13:17:49;;;;;;;25.43;13.40;;;;;;;;;;5015599;28;20057;-83
2022/01/23 13:31:35;;;;;;;23.02;12.55;;;;;;;;;;5015338;28;20374;-83
2022/01/23 13:34:01;;;;;;;21.40;13.20;;;;;;;;;;5015132;28;20029;-82
2022/01/23 13:36:27;;;;;;;26.33;14.17;;;;;;;;;;5015059;28;20042;-82
2022/01/23 13:38:56;;;;;;;25.67;13.07;;;;;;;;;;5014971;28;20017;-82
2022/01/23 13:41:26;;;;;;;21.40;13.87;;;;;;;;;;5015296;28;20034;-82
2022/01/23 13:50:26;;;;;;;25.13;14.60;;;;;;;;;;5015179;28;20056;-82
2022/01/23 13:52:57;;;;;;;22.50;13.17;;;;;;;;;;5014854;28;20022;-82
2022/01/23 13:58:32;;;;;;;25.07;12.97;;;;;;;;;;4992289;28;20488;-83
2022/01/23 14:01:09;;;;;;;25.37;14.10;;;;;;;;;;5014543;28;20049;-82
2022/01/23 14:03:35;;;;;;;21.83;13.37;;;;;;;;;;5014854;28;20026;-82
2022/01/23 14:06:02;;;;;;;22.07;12.60;;;;;;;;;;5013273;28;20029;-82
2022/01/23 14:08:28;;;;;;;22.70;13.67;;;;;;;;;;5014458;28;20113;-82
2022/01/23 14:10:54;;;;;;;21.97;14.07;;;;;;;;;;5014630;28;20022;-82
2022/01/23 14:13:20;;;;;;;25.17;14.00;;;;;;;;;;5014589;28;20033;-82
2022/01/23 14:15:48;;;;;;;25.03;14.07;;;;;;;;;;5014467;28;20324;-82
2022/01/23 14:18:20;;;;;;;25.30;14.50;;;;;;;;;;5014452;28;20386;-83
2022/01/23 14:20:54;;;;;;;25.00;14.53;;;;;;;;;;5014469;28;20034;-83
2022/01/23 14:23:20;;;;;;;27.20;15.70;;;;;;;;;;5014416;28;20029;-82
2022/01/23 14:25:48;;;;;;;28.50;16.10;;;;;;;;;;5014259;28;20112;-82
2022/01/23 14:28:16;;;;;;;27.33;16.10;;;;;;;;;;5012822;28;20447;-82
2022/01/23 14:30:43;;;;;;;25.83;14.20;;;;;;;;;;5013311;28;20018;-83
2022/01/23 14:33:14;;;;;;;27.53;14.73;;;;;;;;;;5013934;28;20324;-82
2022/01/23 14:35:40;;;;;;;23.93;14.00;;;;;;;;;;5014262;28;20014;-83
2022/01/23 14:38:15;;;;;;;26.77;14.47;;;;;;;;;;5014296;28;20030;-83
2022/01/23 14:41:11;;;;;;;22.27;13.90;;;;;;;;;;5013964;28;20041;-82
2022/01/23 14:43:41;;;;;;;27.67;15.50;;;;;;;;;;5005686;28;20034;-82
2022/01/23 14:46:08;;;;;;;26.50;14.83;;;;;;;;;;5014106;28;20026;-83
2022/01/23 14:48:39;;;;;;;25.27;13.73;;;;;;;;;;5012580;28;20033;-82
2022/01/23 14:51:06;;;;;;;33.87;18.70;;;;;;;;;;5012683;28;20022;-83
2022/01/23 14:53:37;;;;;;;34.13;18.03;;;;;;;;;;5014085;28;20037;-83
2022/01/23 14:56:04;;;;;;;30.47;16.83;;;;;;;;;;5013838;28;20022;-83
2022/01/23 14:58:33;;;;;;;29.43;16.43;;;;;;;;;;5012574;28;20417;-82
2022/01/23 15:00:59;;;;;;;23.67;14.50;;;;;;;;;;5011255;28;20033;-83
2022/01/23 15:03:26;;;;;;;27.00;16.93;;;;;;;;;;5013682;28;20373;-83
2022/01/23 15:05:53;;;;;;;27.00;16.20;;;;;;;;;;5013517;28;20030;-82
2022/01/23 15:08:22;;;;;;;27.33;15.63;;;;;;;;;;5012142;28;20377;-82
2022/01/23 15:10:48;;;;;;;25.37;16.03;;;;;;;;;;5012198;28;20046;-82
2022/01/23 15:13:15;;;;;;;23.00;14.43;;;;;;;;;;5012460;28;20026;-83
2022/01/23 15:15:42;;;;;;;31.20;15.90;;;;;;;;;;5013469;28;20108;-83
2022/01/23 15:18:08;;;;;;;23.60;15.10;;;;;;;;;;5013567;28;20382;-83
2022/01/23 15:20:35;;;;;;;28.70;15.30;;;;;;;;;;5012252;28;20061;-82
2022/01/23 15:23:04;;;;;;;29.33;15.93;;;;;;;;;;5013862;28;20025;-82
2022/01/23 15:25:30;;;;;;;26.67;14.83;;;;;;;;;;5012139;28;20025;-83
2022/01/23 15:27:56;;;;;;;26.60;15.47;;;;;;;;;;5013397;28;20109;-82
2022/01/23 15:30:24;;;;;;;27.20;15.10;;;;;;;;;;5013541;28;20478;-82
2022/01/23 15:32:51;;;;;;;28.73;16.30;;;;;;;;;;5013221;28;20458;-82
2022/01/23 15:35:18;;;;;;;28.10;16.07;;;;;;;;;;5013344;28;20021;-83
2022/01/23 15:37:44;;;;;;;31.00;15.87;;;;;;;;;;5013118;28;20497;-81
2022/01/23 15:40:12;;;;;;;25.60;15.60;;;;;;;;;;5013635;28;20029;-82
2022/01/23 15:42:38;;;;;;;29.40;15.87;;;;;;;;;;5015026;28;20485;-82
2022/01/23 15:45:05;;;;;;;28.90;16.30;;;;;;;;;;5016431;28;20466;-82
2022/01/23 15:47:32;;;;;;;27.13;15.77;;;;;;;;;;5017321;28;20084;-82
2022/01/23 15:49:58;;;;;;;32.33;17.10;;;;;;;;;;5017194;28;20030;-82
2022/01/23 15:52:24;;;;;;;31.30;18.13;;;;;;;;;;5016158;28;20022;-82
2022/01/23 15:54:50;;;;;;;41.80;22.27;;;;;;;;;;5017590;28;20029;-82
2022/01/23 15:57:16;;;;;;;47.67;25.63;;;;;;;;;;5017166;28;20030;-82
2022/01/23 15:59:42;;;;;;;55.17;29.87;;;;;;;;;;5015982;28;20505;-82
2022/01/23 16:02:08;;;;;;;53.47;29.10;;;;;;;;;;5017117;28;20112;-82
2022/01/23 16:04:37;;;;;;;46.97;25.93;;;;;;;;;;5017025;28;20473;-82
2022/01/23 16:07:04;;;;;;;37.93;21.87;;;;;;;;;;5017066;28;20022;-82
2022/01/23 16:09:30;;;;;;;29.37;18.20;;;;;;;;;;5016470;28;20046;-82
2022/01/23 16:11:56;;;;;;;31.17;18.13;;;;;;;;;;5015601;28;20490;-82
2022/01/23 16:14:23;;;;;;;35.20;19.30;;;;;;;;;;5016820;28;20029;-82
2022/01/23 16:16:49;;;;;;;29.77;17.90;;;;;;;;;;5015420;28;20478;-82
2022/01/23 16:19:16;;;;;;;36.00;20.17;;;;;;;;;;5015476;28;20545;-82
2022/01/23 16:21:44;;;;;;;32.33;18.97;;;;;;;;;;5016602;28;20042;-82
2022/01/23 16:24:10;;;;;;;37.60;21.57;;;;;;;;;;5016679;28;20022;-81
2022/01/23 16:26:36;;;;;;;31.93;20.20;;;;;;;;;;5016570;28;20032;-81
2022/01/23 16:29:03;;;;;;;35.83;21.53;;;;;;;;;;5016269;28;20030;-82
2022/01/23 16:31:29;;;;;;;38.70;22.50;;;;;;;;;;5016411;28;20032;-81
2022/01/23 16:33:55;;;;;;;36.13;21.13;;;;;;;;;;5016420;28;20044;-82
2022/01/23 16:36:21;;;;;;;32.53;20.87;;;;;;;;;;5015181;28;20487;-81